Time;durP1;ratioP1;P1;durP2;ratioP2;P2;SDS_P1;SDS_P2;PMS_P1;PMS_P2;Temp;Humidity;BMP_temperature;BMP_pressure;BME280_temperature;BME280_humidity;BME280_pressure;Samples;Min_cycle;Max_cycle;Signal;HPM_P1;HPM_P2
2023/07/22 00:00:37;;;;;;;9.03;4.17;;;;;;;12.76;100.00;100589.31;6050349;28;20079;-66
2023/07/22 00:03:33;;;;;;;9.77;4.87;;;;;;;12.70;100.00;100589.97;6055018;28;20083;-66
2023/07/22 00:06:28;;;;;;;9.20;4.40;;;;;;;12.66;100.00;100592.13;6069599;28;20026;-66
2023/07/22 00:09:24;;;;;;;9.37;4.97;;;;;;;12.58;100.00;100600.09;6050038;28;20580;-66
2023/07/22 00:12:19;;;;;;;8.95;4.80;;;;;;;12.62;100.00;100608.56;6049911;28;20276;-66
2023/07/22 00:15:15;;;;;;;10.43;5.13;;;;;;;12.51;100.00;100596.41;6048166;28;20373;-66
2023/07/22 00:18:10;;;;;;;10.13;5.20;;;;;;;12.52;100.00;100606.06;6049850;28;20041;-66
2023/07/22 00:21:06;;;;;;;10.00;5.32;;;;;;;12.45;100.00;100605.00;6056660;28;20104;-66
2023/07/22 00:24:02;;;;;;;8.82;5.10;;;;;;;12.48;100.00;100613.50;6072975;28;20041;-66
2023/07/22 00:26:57;;;;;;;8.73;4.43;;;;;;;12.43;100.00;100607.84;6066384;28;20041;-67
2023/07/22 00:29:52;;;;;;;9.67;4.93;;;;;;;12.33;100.00;100601.00;6050267;28;20272;-67
2023/07/22 00:32:48;;;;;;;9.63;5.00;;;;;;;12.36;100.00;100603.34;6049599;28;20261;-66
2023/07/22 00:35:48;;;;;;;10.00;5.60;;;;;;;12.31;100.00;100608.31;6049156;28;20034;-66
2023/07/22 00:38:43;;;;;;;11.75;5.20;;;;;;;12.34;100.00;100621.25;6049528;28;20022;-67
2023/07/22 00:41:40;;;;;;;13.43;5.30;;;;;;;12.30;100.00;100618.09;6051902;28;20393;-66
2023/07/22 00:44:36;;;;;;;9.80;5.13;;;;;;;12.27;100.00;100623.75;6049030;28;20026;-66
2023/07/22 00:47:34;;;;;;;11.30;5.53;;;;;;;12.09;100.00;100598.22;6049705;28;20079;-66
2023/07/22 00:50:29;;;;;;;9.38;5.38;;;;;;;12.18;100.00;100619.38;6049524;28;20026;-67
2023/07/22 00:53:25;;;;;;;10.37;5.83;;;;;;;12.19;100.00;100609.56;6053879;28;20030;-66
2023/07/22 00:56:20;;;;;;;10.27;5.32;;;;;;;12.17;100.00;100616.88;6060325;28;20370;-66
2023/07/22 00:59:16;;;;;;;18.97;6.77;;;;;;;12.06;100.00;100594.06;6049530;28;20037;-66
2023/07/22 01:02:11;;;;;;;11.60;5.60;;;;;;;12.12;100.00;100616.53;6049314;28;20112;-66
2023/07/22 01:05:08;;;;;;;12.48;6.40;;;;;;;12.17;100.00;100611.56;6056650;28;20039;-66
2023/07/22 01:08:04;;;;;;;13.68;5.50;;;;;;;12.17;100.00;100616.88;6067086;28;20037;-66
2023/07/22 01:10:59;;;;;;;14.45;5.93;;;;;;;12.12;100.00;100609.34;6053956;28;20454;-66
2023/07/22 01:13:57;;;;;;;11.00;6.03;;;;;;;12.06;100.00;100604.69;6053379;28;20060;-66
2023/07/22 01:16:53;;;;;;;11.20;4.93;;;;;;;12.04;100.00;100605.84;6053654;28;20424;-66
2023/07/22 01:19:49;;;;;;;12.73;5.28;;;;;;;12.00;100.00;100585.88;6052473;28;20030;-66
2023/07/22 01:22:53;;;;;;;13.32;5.93;;;;;;;12.07;100.00;100613.47;6053576;28;20026;-66
2023/07/22 01:25:49;;;;;;;11.52;5.97;;;;;;;12.01;100.00;100608.81;6053121;28;20057;-66
2023/07/22 01:28:44;;;;;;;11.83;5.70;;;;;;;12.08;100.00;100616.00;6053517;28;20136;-66
2023/07/22 01:31:40;;;;;;;13.02;5.93;;;;;;;12.02;100.00;100613.97;6053752;28;20289;-66
2023/07/22 01:34:36;;;;;;;13.90;5.63;;;;;;;12.09;100.00;100619.50;6053158;28;20402;-67
2023/07/22 01:37:31;;;;;;;12.70;5.67;;;;;;;12.01;100.00;100611.47;6061589;28;20026;-66
2023/07/22 01:40:28;;;;;;;12.73;4.97;;;;;;;11.92;100.00;100606.13;6055994;28;20026;-66
2023/07/22 01:43:24;;;;;;;12.50;5.68;;;;;;;11.90;100.00;100600.09;6052530;28;20037;-66
2023/07/22 01:46:19;;;;;;;13.00;5.70;;;;;;;12.02;100.00;100615.78;6053491;28;20026;-67
2023/07/22 01:49:16;;;;;;;14.82;5.60;;;;;;;11.87;100.00;100596.94;6053231;28;20108;-65
2023/07/22 01:52:11;;;;;;;13.55;6.03;;;;;;;11.88;100.00;100607.41;6052933;28;20059;-68
2023/07/22 01:55:10;;;;;;;11.17;5.60;;;;;;;12.00;100.00;100620.44;6052214;28;20454;-65
2023/07/22 01:58:05;;;;;;;11.15;5.50;;;;;;;11.84;100.00;100610.53;6065425;28;20037;-65
2023/07/22 02:01:01;;;;;;;13.50;6.07;;;;;;;11.88;100.00;100606.56;6053069;28;20033;-68
2023/07/22 02:03:56;;;;;;;12.35;6.05;;;;;;;11.78;100.00;100617.31;6053434;28;20034;-65
2023/07/22 02:06:52;;;;;;;14.83;5.93;;;;;;;11.77;100.00;100622.75;6057816;28;20496;-65
2023/07/22 02:09:47;;;;;;;13.03;6.30;;;;;;;11.68;100.00;100611.25;6053950;28;20261;-65
2023/07/22 02:12:42;;;;;;;11.10;4.97;;;;;;;11.77;100.00;100626.25;6052500;28;20268;-65
2023/07/22 02:15:38;;;;;;;13.38;6.15;;;;;;;11.72;100.00;100615.28;6052078;28;20030;-65
2023/07/22 02:18:33;;;;;;;13.73;6.27;;;;;;;11.82;100.00;100636.44;6051812;28;20046;-65
2023/07/22 02:21:29;;;;;;;13.27;6.50;;;;;;;11.77;100.00;100628.06;6052247;28;20061;-66
2023/07/22 02:24:24;;;;;;;12.70;6.15;;;;;;;11.72;100.00;100631.22;6072408;28;20457;-66
2023/07/22 02:27:19;;;;;;;17.40;6.13;;;;;;;11.74;100.00;100639.84;6076048;28;20503;-65
2023/07/22 02:30:15;;;;;;;15.50;5.87;;;;;;;11.68;100.00;100631.66;6078013;28;20033;-65
2023/07/22 02:33:10;;;;;;;14.60;6.00;;;;;;;11.68;100.00;100643.13;6076053;28;20025;-65
2023/07/22 02:36:05;;;;;;;13.83;6.23;;;;;;;11.53;100.00;100628.72;6063183;28;20095;-67
2023/07/22 02:39:00;;;;;;;11.03;5.43;;;;;;;11.57;100.00;100640.72;6052164;28;20052;-65
2023/07/22 02:41:56;;;;;;;13.23;5.73;;;;;;;11.53;100.00;100636.69;6051813;28;20057;-66
2023/07/22 02:44:51;;;;;;;11.20;5.78;;;;;;;11.47;100.00;100639.13;6051424;28;20026;-65
2023/07/22 02:47:47;;;;;;;13.00;5.40;;;;;;;11.47;100.00;100634.63;6051795;28;20026;-66
2023/07/22 02:50:42;;;;;;;15.87;6.00;;;;;;;11.39;100.00;100636.41;6052004;28;20119;-65
2023/07/22 02:53:37;;;;;;;14.77;6.10;;;;;;;11.41;100.00;100627.31;6051132;28;20049;-66
2023/07/22 02:56:33;;;;;;;15.23;5.82;;;;;;;11.49;100.00;100643.31;6057934;28;20107;-66
2023/07/22 02:59:28;;;;;;;15.37;5.43;;;;;;;11.54;100.00;100641.00;6051634;28;20474;-66
2023/07/22 03:02:23;;;;;;;13.67;5.53;;;;;;;11.47;100.00;100633.81;6051451;28;20047;-66
2023/07/22 03:05:19;;;;;;;10.53;4.80;;;;;;;11.47;100.00;100657.72;6062794;28;20029;-66
2023/07/22 03:08:17;;;;;;;11.60;4.97;;;;;;;11.44;100.00;100645.56;6052214;28;20025;-66
2023/07/22 03:11:12;;;;;;;13.70;5.25;;;;;;;11.51;100.00;100667.88;6051115;28;20038;-65
2023/07/22 03:14:07;;;;;;;12.10;5.83;;;;;;;11.52;100.00;100640.34;6051036;28;20363;-65
2023/07/22 03:17:05;;;;;;;12.88;5.05;;;;;;;11.59;100.00;100640.53;6051135;28;20281;-66
2023/07/22 03:20:05;;;;;;;12.82;5.75;;;;;;;11.51;100.00;100643.97;6052571;28;20120;-66
2023/07/22 03:23:00;;;;;;;12.95;4.85;;;;;;;11.46;100.00;100648.91;6044026;28;20056;-66
2023/07/22 03:25:55;;;;;;;11.53;4.73;;;;;;;11.46;100.00;100653.38;6051877;28;20030;-65
2023/07/22 03:28:51;;;;;;;11.47;4.97;;;;;;;11.55;100.00;100663.91;6061675;28;20036;-66
2023/07/22 03:31:46;;;;;;;15.30;4.97;;;;;;;11.51;100.00;100662.56;6056771;28;20081;-66
2023/07/22 03:34:41;;;;;;;14.67;5.13;;;;;;;11.57;100.00;100648.69;6050307;28;20026;-66
2023/07/22 03:37:37;;;;;;;11.20;5.00;;;;;;;11.50;100.00;100655.56;6050939;28;20481;-66
2023/07/22 03:40:32;;;;;;;14.68;5.07;;;;;;;11.54;100.00;100670.22;6050187;28;20026;-66
2023/07/22 03:43:27;;;;;;;13.65;5.05;;;;;;;11.54;100.00;100662.25;6051577;28;20033;-66
2023/07/22 03:46:23;;;;;;;13.23;5.00;;;;;;;11.55;100.00;100674.53;6056024;28;20029;-67
2023/07/22 03:49:18;;;;;;;13.83;5.13;;;;;;;11.60;100.00;100676.75;6050204;28;20030;-65
2023/07/22 03:52:18;;;;;;;11.90;4.83;;;;;;;11.58;100.00;100673.38;6050464;28;20555;-66
2023/07/22 03:55:13;;;;;;;11.40;4.75;;;;;;;11.50;100.00;100660.88;6049539;28;20050;-66
2023/07/22 03:58:08;;;;;;;12.13;4.85;;;;;;;11.59;100.00;100670.59;6050472;28;20043;-65
2023/07/22 04:01:04;;;;;;;13.83;5.17;;;;;;;11.54;100.00;100672.88;6051151;28;20108;-66
2023/07/22 04:03:59;;;;;;;12.33;5.13;;;;;;;11.65;100.00;100677.97;6050114;28;20280;-66
2023/07/22 04:06:54;;;;;;;13.73;4.67;;;;;;;11.80;100.00;100687.06;6062664;28;20025;-65
2023/07/22 04:09:49;;;;;;;9.47;4.47;;;;;;;11.69;100.00;100668.72;6073830;28;20100;-66
2023/07/22 04:12:45;;;;;;;14.27;4.77;;;;;;;11.80;100.00;100662.31;6073994;28;20033;-66
2023/07/22 04:15:40;;;;;;;12.20;4.70;;;;;;;11.83;100.00;100681.44;6049779;28;20030;-66
2023/07/22 04:18:35;;;;;;;12.57;5.00;;;;;;;11.91;100.00;100686.81;6050280;28;20037;-66
2023/07/22 04:21:31;;;;;;;12.93;5.00;;;;;;;11.97;100.00;100688.03;6049997;28;20045;-66
2023/07/22 04:24:26;;;;;;;11.30;4.47;;;;;;;11.97;100.00;100669.41;6049090;28;20039;-65
2023/07/22 04:27:21;;;;;;;9.97;4.30;;;;;;;12.20;100.00;100688.34;6050199;28;20382;-66
2023/07/22 04:30:20;;;;;;;11.70;4.33;;;;;;;12.39;100.00;100680.94;6060993;28;20038;-66
2023/07/22 04:33:15;;;;;;;10.35;4.20;;;;;;;12.61;100.00;100689.41;6049598;28;20029;-66
2023/07/22 04:36:11;;;;;;;10.77;4.07;;;;;;;12.78;100.00;100672.47;6049453;28;20117;-65
2023/07/22 04:39:07;;;;;;;10.57;3.97;;;;;;;12.99;100.00;100675.56;6050001;28;20077;-66
2023/07/22 04:42:02;;;;;;;9.45;3.75;;;;;;;13.26;100.00;100670.00;6055447;28;20042;-66
2023/07/22 04:44:58;;;;;;;12.63;4.60;;;;;;;13.36;100.00;100680.47;6067855;28;20427;-66
2023/07/22 04:47:53;;;;;;;10.27;3.87;;;;;;;13.50;99.33;100683.34;6057648;28;20029;-66
2023/07/22 04:50:48;;;;;;;11.47;4.37;;;;;;;13.56;98.30;100684.50;6057491;28;20409;-66
2023/07/22 04:53:44;;;;;;;9.10;3.83;;;;;;;13.69;97.82;100685.66;6056982;28;20034;-67
2023/07/22 04:56:39;;;;;;;8.70;4.00;;;;;;;13.64;97.58;100695.16;6057147;28;20025;-66
2023/07/22 04:59:34;;;;;;;10.10;3.80;;;;;;;13.65;97.68;100696.81;6057247;28;20049;-66
2023/07/22 05:02:30;;;;;;;7.80;3.70;;;;;;;13.75;97.09;100686.84;6060959;28;20280;-66
2023/07/22 05:05:26;;;;;;;10.15;4.60;;;;;;;13.62;96.35;100675.81;6059547;28;20381;-66
2023/07/22 05:08:21;;;;;;;11.25;4.40;;;;;;;13.58;97.60;100701.16;6059451;28;20033;-66
2023/07/22 05:11:18;;;;;;;11.57;4.03;;;;;;;13.48;97.92;100697.81;6057444;28;20026;-66
2023/07/22 05:14:13;;;;;;;10.75;3.88;;;;;;;13.73;98.27;100712.81;6056417;28;20033;-66
2023/07/22 05:17:08;;;;;;;8.97;4.23;;;;;;;13.68;96.78;100697.31;6057578;28;20061;-66
2023/07/22 05:20:14;;;;;;;7.70;3.80;;;;;;;13.94;95.04;100697.13;6056945;28;20033;-66
2023/07/22 05:23:09;;;;;;;11.25;4.57;;;;;;;14.11;94.20;100720.13;6056911;28;20041;-66
2023/07/22 05:26:04;;;;;;;16.43;4.37;;;;;;;14.11;93.47;100712.13;6069099;28;20369;-66
2023/07/22 05:28:59;;;;;;;13.50;4.67;;;;;;;14.14;93.51;100714.44;6056978;28;20022;-66
2023/07/22 05:31:55;;;;;;;12.50;4.60;;;;;;;14.27;92.29;100698.75;6057989;28;20044;-66
2023/07/22 05:34:51;;;;;;;11.25;4.40;;;;;;;14.58;91.12;100703.38;6055994;28;20389;-66
2023/07/22 05:37:46;;;;;;;8.77;3.40;;;;;;;14.98;88.69;100715.72;6068407;28;20468;-66
2023/07/22 05:40:42;;;;;;;10.53;4.00;;;;;;;14.96;89.36;100701.72;6056923;28;20034;-66
2023/07/22 05:43:38;;;;;;;9.35;3.95;;;;;;;14.77;87.36;100700.28;6055115;28;20319;-66
2023/07/22 05:46:33;;;;;;;9.07;3.73;;;;;;;14.72;87.47;100719.50;6057035;28;20080;-66
2023/07/22 05:49:28;;;;;;;14.13;4.97;;;;;;;14.66;89.46;100714.84;6056956;28;20038;-66
2023/07/22 05:52:24;;;;;;;8.63;4.20;;;;;;;14.54;88.98;100710.06;6054291;28;20084;-66
2023/07/22 05:55:19;;;;;;;9.10;3.97;;;;;;;14.73;89.64;100728.38;6052562;28;20461;-66
2023/07/22 05:58:18;;;;;;;8.90;3.85;;;;;;;14.81;87.98;100737.16;6052941;28;20261;-66
2023/07/22 06:01:14;;;;;;;8.90;3.55;;;;;;;14.97;87.63;100709.56;6054323;28;20022;-66
2023/07/22 06:04:10;;;;;;;11.13;3.53;;;;;;;15.26;86.81;100732.94;6060000;28;20046;-67
2023/07/22 06:07:05;;;;;;;10.68;3.85;;;;;;;15.40;85.05;100738.38;6063325;28;20030;-66
2023/07/22 06:10:00;;;;;;;8.32;3.50;;;;;;;15.34;84.82;100735.56;6060606;28;20034;-66
2023/07/22 06:12:56;;;;;;;10.40;3.63;;;;;;;15.12;85.54;100728.34;6053283;28;20517;-66
2023/07/22 06:15:51;;;;;;;9.37;3.63;;;;;;;15.11;85.58;100738.19;6052039;28;20026;-66
2023/07/22 06:18:46;;;;;;;13.17;4.43;;;;;;;15.16;85.91;100751.03;6052256;28;20744;-68
2023/07/22 06:21:42;;;;;;;9.43;4.00;;;;;;;15.57;84.47;100740.97;6056423;28;20029;-65
2023/07/22 06:24:37;;;;;;;9.10;3.77;;;;;;;16.05;82.89;100740.59;6074230;28;20045;-65
2023/07/22 06:27:33;;;;;;;10.07;4.00;;;;;;;16.30;80.69;100731.31;6071485;28;20053;-66
2023/07/22 06:30:28;;;;;;;8.82;3.72;;;;;;;16.73;77.87;100745.78;6060807;28;20364;-66
2023/07/22 06:33:24;;;;;;;9.03;3.50;;;;;;;16.66;77.84;100744.84;6075306;28;20029;-66
2023/07/22 06:36:19;;;;;;;13.70;4.78;;;;;;;16.67;77.12;100742.00;6076042;28;20025;-66
2023/07/22 06:39:14;;;;;;;9.47;4.00;;;;;;;16.59;77.46;100743.94;6060437;28;20034;-67
2023/07/22 06:42:10;;;;;;;10.87;3.93;;;;;;;16.60;75.99;100746.41;6052595;28;20381;-67
2023/07/22 06:45:05;;;;;;;10.30;3.70;;;;;;;16.50;78.34;100740.47;6051685;28;20049;-66
2023/07/22 06:48:01;;;;;;;8.88;3.35;;;;;;;16.62;77.98;100760.47;6051686;28;20030;-66
2023/07/22 06:50:56;;;;;;;10.70;3.70;;;;;;;16.50;76.92;100748.50;6053266;28;20080;-66
2023/07/22 06:53:51;;;;;;;10.43;4.10;;;;;;;16.36;77.58;100757.34;6060939;28;20047;-66
2023/07/22 06:56:47;;;;;;;11.23;4.33;;;;;;;16.22;78.38;100758.16;6051785;28;20030;-67
2023/07/22 06:59:42;;;;;;;10.17;4.50;;;;;;;16.15;79.19;100759.06;6051446;28;20354;-66
2023/07/22 07:02:37;;;;;;;9.87;3.93;;;;;;;16.25;78.68;100757.78;6068304;28;20033;-66
2023/07/22 07:05:34;;;;;;;9.13;4.03;;;;;;;16.02;78.20;100740.94;6074460;28;20079;-66
2023/07/22 07:08:30;;;;;;;10.27;4.57;;;;;;;15.96;78.63;100760.38;6062812;28;20103;-67
2023/07/22 07:11:25;;;;;;;10.27;4.25;;;;;;;16.14;79.54;100750.22;6060549;28;20181;-66
2023/07/22 07:14:20;;;;;;;9.15;4.10;;;;;;;16.35;78.54;100753.03;6074571;28;20028;-66
2023/07/22 07:17:16;;;;;;;11.30;4.60;;;;;;;16.64;77.30;100755.75;6074172;28;20083;-66
2023/07/22 07:20:13;;;;;;;9.33;3.70;;;;;;;16.93;75.54;100738.03;6053791;28;20393;-66
2023/07/22 07:23:09;;;;;;;10.88;4.15;;;;;;;17.32;74.61;100741.16;6070411;28;20095;-66
2023/07/22 07:26:04;;;;;;;11.27;4.43;;;;;;;17.21;72.69;100729.09;6074448;28;20033;-66
2023/07/22 07:28:59;;;;;;;8.87;3.70;;;;;;;17.13;74.70;100739.09;6074810;28;20112;-66
2023/07/22 07:31:55;;;;;;;7.67;4.07;;;;;;;16.92;74.14;100731.00;6074716;28;20391;-66
2023/07/22 07:34:50;;;;;;;10.70;4.03;;;;;;;16.82;75.24;100743.84;6073986;28;20072;-66
2023/07/22 07:37:45;;;;;;;9.37;4.03;;;;;;;17.35;73.13;100742.63;6058436;28;20037;-66
2023/07/22 07:40:40;;;;;;;9.90;4.07;;;;;;;17.13;73.15;100755.16;6046149;28;20034;-66
2023/07/22 07:43:36;;;;;;;9.27;4.20;;;;;;;17.05;73.87;100760.63;6055160;28;20033;-66
2023/07/22 07:46:32;;;;;;;8.03;3.80;;;;;;;16.93;75.16;100749.53;6046907;28;20052;-66
2023/07/22 07:49:28;;;;;;;8.48;3.97;;;;;;;17.12;74.95;100756.19;6049291;28;20026;-66
2023/07/22 07:52:23;;;;;;;9.07;4.00;;;;;;;17.12;74.83;100753.53;6055420;28;20377;-66
2023/07/22 07:55:18;;;;;;;10.93;3.73;;;;;;;17.71;70.48;100773.81;6056927;28;20296;-66
2023/07/22 07:58:14;;;;;;;9.47;4.33;;;;;;;18.35;70.60;100757.66;6068130;28;20097;-66
2023/07/22 08:01:09;;;;;;;8.57;3.90;;;;;;;18.48;68.21;100771.19;6045006;28;20045;-66
2023/07/22 08:04:05;;;;;;;10.03;4.20;;;;;;;18.32;66.84;100776.81;6057914;28;20492;-66
2023/07/22 08:07:00;;;;;;;8.63;3.90;;;;;;;18.33;67.15;100778.50;6060134;28;20380;-67
2023/07/22 08:09:57;;;;;;;10.63;4.30;;;;;;;18.49;65.97;100777.41;6047865;28;20030;-67
2023/07/22 08:12:52;;;;;;;7.32;3.80;;;;;;;18.52;65.52;100777.84;6054652;28;20039;-67
2023/07/22 08:15:47;;;;;;;7.67;3.77;;;;;;;18.55;64.45;100776.63;6068917;28;20033;-68
2023/07/22 08:18:43;;;;;;;8.13;3.87;;;;;;;18.49;64.38;100767.50;6068837;28;20037;-67
2023/07/22 08:21:38;;;;;;;7.75;3.92;;;;;;;18.54;64.87;100762.38;6046841;28;20457;-67
2023/07/22 08:24:34;;;;;;;10.37;4.07;;;;;;;19.06;63.44;100764.53;6052463;28;20042;-67
2023/07/22 08:27:29;;;;;;;7.37;3.70;;;;;;;19.17;62.03;100781.94;6046301;28;20114;-67
2023/07/22 08:30:24;;;;;;;9.60;4.13;;;;;;;19.09;61.72;100774.03;6046337;28;20037;-67
2023/07/22 08:33:20;;;;;;;7.93;3.50;;;;;;;18.89;62.54;100769.41;6045561;28;20045;-67
2023/07/22 08:36:15;;;;;;;10.25;4.45;;;;;;;18.76;61.84;100766.63;6058345;28;20710;-67
2023/07/22 08:39:10;;;;;;;7.47;3.60;;;;;;;18.97;62.56;100784.53;6070267;28;20424;-67
2023/07/22 08:42:07;;;;;;;7.95;3.80;;;;;;;18.93;62.39;100786.81;6054244;28;20048;-67
2023/07/22 08:45:04;;;;;;;8.65;3.75;;;;;;;18.40;63.78;100776.69;6044839;28;20354;-67
2023/07/22 08:47:59;;;;;;;9.35;4.68;;;;;;;18.61;63.91;100784.75;6045210;28;20033;-68
2023/07/22 08:50:59;;;;;;;11.77;4.75;;;;;;;18.71;64.20;100773.63;6046198;28;20045;-67
2023/07/22 08:53:56;;;;;;;9.35;3.67;;;;;;;19.03;61.80;100765.75;6044246;28;20022;-66
2023/07/22 08:56:53;;;;;;;11.57;3.70;;;;;;;19.21;62.37;100772.47;6060452;28;20041;-67
2023/07/22 08:59:49;;;;;;;8.20;4.10;;;;;;;18.97;61.04;100779.97;6049309;28;20354;-67
2023/07/22 09:02:45;;;;;;;9.70;3.70;;;;;;;19.37;59.81;100791.78;6047816;28;20118;-67
2023/07/22 09:05:41;;;;;;;7.55;3.42;;;;;;;19.53;58.89;100777.16;6055315;28;20030;-67
2023/07/22 09:08:38;;;;;;;8.15;4.05;;;;;;;19.84;57.28;100774.72;6046288;28;20101;-68
2023/07/22 09:11:34;;;;;;;7.30;3.42;;;;;;;20.08;57.02;100786.78;6045949;28;20130;-67
2023/07/22 09:14:30;;;;;;;6.35;3.78;;;;;;;19.93;56.76;100762.75;6047574;28;20163;-68
2023/07/22 09:17:27;;;;;;;7.15;4.05;;;;;;;19.67;58.53;100772.63;6045521;28;20479;-67
2023/07/22 09:20:23;;;;;;;7.97;4.18;;;;;;;19.81;58.41;100775.13;6045878;28;20100;-67
2023/07/22 09:23:18;;;;;;;9.10;4.38;;;;;;;19.84;58.42;100773.94;6059689;28;20029;-67
2023/07/22 09:26:15;;;;;;;8.90;4.73;;;;;;;19.96;58.82;100788.41;6069273;28;20033;-67
2023/07/22 09:29:10;;;;;;;10.40;5.20;;;;;;;20.28;57.06;100759.88;6064796;28;20038;-68
2023/07/22 09:32:07;;;;;;;10.03;4.57;;;;;;;20.42;58.38;100767.75;6050026;28;20072;-68
2023/07/22 09:35:07;;;;;;;11.75;5.70;;;;;;;20.33;57.51;100777.06;6052553;28;20435;-67
2023/07/22 09:38:05;;;;;;;11.82;5.97;;;;;;;20.40;57.17;100764.44;6059105;28;20108;-67
2023/07/22 09:41:01;;;;;;;10.57;5.35;;;;;;;20.15;58.76;100747.22;6049759;28;20103;-67
2023/07/22 09:43:56;;;;;;;10.55;5.30;;;;;;;19.62;56.81;100764.34;6049289;28;20037;-67
2023/07/22 09:46:51;;;;;;;14.10;6.73;;;;;;;19.34;59.01;100751.00;6051344;28;20042;-67
2023/07/22 09:49:49;;;;;;;12.73;6.20;;;;;;;19.64;59.59;100757.72;6049742;28;20346;-67
2023/07/22 09:52:49;;;;;;;9.55;5.85;;;;;;;20.45;59.39;100745.78;6051256;28;20029;-67
2023/07/22 09:55:44;;;;;;;10.32;5.70;;;;;;;21.01;54.99;100740.66;6072766;28;20026;-67
2023/07/22 09:58:40;;;;;;;10.87;5.73;;;;;;;21.68;53.27;100767.16;6073523;28;20048;-67
2023/07/22 10:01:38;;;;;;;11.85;5.85;;;;;;;21.31;53.00;100741.81;6052860;28;20461;-67
2023/07/22 10:04:34;;;;;;;11.00;5.68;;;;;;;21.39;53.35;100742.59;6067445;28;20043;-67
2023/07/22 10:07:33;;;;;;;9.15;5.60;;;;;;;20.25;55.37;100760.31;6050967;28;20040;-67
2023/07/22 10:10:33;;;;;;;10.05;5.43;;;;;;;19.71;57.49;100758.56;6050127;28;20034;-67
2023/07/22 10:13:28;;;;;;;10.57;5.35;;;;;;;19.18;58.83;100745.97;6050167;28;20452;-67
2023/07/22 10:16:23;;;;;;;9.57;4.93;;;;;;;19.66;58.24;100749.44;6057920;28;20029;-66
2023/07/22 10:19:20;;;;;;;11.18;5.20;;;;;;;19.75;56.68;100738.28;6051133;28;20351;-67
2023/07/22 10:22:15;;;;;;;7.75;4.65;;;;;;;20.22;56.97;100718.41;6064268;28;20034;-67
2023/07/22 10:25:12;;;;;;;9.55;4.53;;;;;;;21.03;55.05;100738.59;6048691;28;20034;-68
2023/07/22 10:28:08;;;;;;;8.77;4.78;;;;;;;21.26;54.56;100733.53;6048856;28;20041;-67
2023/07/22 10:31:03;;;;;;;7.53;4.30;;;;;;;20.60;55.21;100743.66;6048369;28;20165;-67
2023/07/22 10:34:00;;;;;;;7.60;4.20;;;;;;;20.36;55.75;100749.72;6057412;28;20063;-68
2023/07/22 10:36:58;;;;;;;12.00;4.75;;;;;;;20.10;56.19;100725.47;6066480;28;20024;-68
2023/07/22 10:39:59;;;;;;;6.25;3.83;;;;;;;19.82;56.16;100717.59;6055709;28;20049;-68
2023/07/22 10:42:59;;;;;;;6.82;3.75;;;;;;;19.43;58.16;100741.75;6048418;28;20030;-67
2023/07/22 10:45:57;;;;;;;8.23;4.50;;;;;;;18.98;60.60;100735.13;6048315;28;20080;-67
2023/07/22 10:49:07;;;;;;;6.25;3.35;;;;;;;18.96;62.35;100748.78;6055011;28;20120;-67
2023/07/22 10:52:02;;;;;;;6.63;3.65;;;;;;;18.91;61.11;100735.13;6049950;28;20029;-66
2023/07/22 10:54:59;;;;;;;6.43;3.50;;;;;;;19.04;60.67;100728.97;6048198;28;20040;-66
2023/07/22 10:57:55;;;;;;;6.85;3.53;;;;;;;18.95;58.50;100712.16;6053044;28;20457;-67
2023/07/22 11:00:51;;;;;;;5.75;2.97;;;;;;;18.85;61.50;100725.16;6047859;28;20052;-66
2023/07/22 11:04:17;;;;;;;6.50;3.60;;;;;;;18.74;61.25;100744.53;6070121;28;20025;-67
2023/07/22 11:07:12;;;;;;;4.50;2.35;;;;;;;18.40;60.95;100726.50;6048085;28;20341;-66
2023/07/22 11:10:18;;;;;;;6.70;2.87;;;;;;;18.28;63.05;100743.34;6047528;28;20382;-66
2023/07/22 11:13:14;;;;;;;6.97;3.30;;;;;;;18.14;65.07;100737.06;6048007;28;20030;-66
2023/07/22 11:16:11;;;;;;;6.13;3.17;;;;;;;18.12;65.38;100725.69;6047156;28;20083;-66
2023/07/22 11:19:06;;;;;;;5.10;2.92;;;;;;;18.62;62.63;100718.38;6047868;28;20058;-67
2023/07/22 11:22:02;;;;;;;6.68;3.13;;;;;;;19.41;59.41;100723.09;6048837;28;20117;-66
2023/07/22 11:24:58;;;;;;;6.30;2.92;;;;;;;19.51;58.68;100693.13;6046981;28;20041;-66
2023/07/22 11:27:53;;;;;;;8.30;3.50;;;;;;;19.87;57.43;100704.34;6048072;28;20053;-67
2023/07/22 11:30:48;;;;;;;5.47;2.70;;;;;;;19.65;56.05;100702.06;6055966;28;20059;-66
2023/07/22 11:33:46;;;;;;;7.67;2.87;;;;;;;19.45;57.58;100710.94;6069623;28;20380;-66
2023/07/22 11:36:42;;;;;;;6.30;2.95;;;;;;;19.20;59.00;100695.50;6053612;28;20547;-67
2023/07/22 11:39:37;;;;;;;4.80;2.90;;;;;;;19.21;58.83;100707.94;6047643;28;20036;-66
2023/07/22 11:42:34;;;;;;;10.18;3.28;;;;;;;19.40;58.41;100699.13;6069849;28;20045;-67
2023/07/22 11:45:30;;;;;;;7.55;2.95;;;;;;;19.70;57.87;100686.97;6072675;28;20057;-67
2023/07/22 11:48:25;;;;;;;9.25;3.35;;;;;;;19.91;56.86;100683.22;6072980;28;20380;-66
2023/07/22 11:51:23;;;;;;;5.47;2.97;;;;;;;20.44;56.07;100684.84;6065217;28;20084;-67
2023/07/22 11:54:20;;;;;;;6.18;3.22;;;;;;;20.71;54.94;100690.97;6057074;28;20112;-66
2023/07/22 11:57:18;;;;;;;5.55;2.90;;;;;;;21.00;54.27;100689.63;6050063;28;20045;-67
2023/07/22 12:00:14;;;;;;;8.02;3.75;;;;;;;21.19;53.36;100678.78;6046285;28;20120;-66
2023/07/22 12:03:09;;;;;;;5.40;3.20;;;;;;;21.03;53.28;100687.34;6051088;28;20388;-67
2023/07/22 12:06:06;;;;;;;7.57;3.43;;;;;;;20.84;52.95;100680.16;6044911;28;20037;-66
2023/07/22 12:09:02;;;;;;;7.65;3.00;;;;;;;20.58;53.55;100691.84;6047843;28;20249;-66
2023/07/22 12:12:00;;;;;;;7.47;2.83;;;;;;;20.58;53.79;100677.53;6046695;28;20033;-66
2023/07/22 12:15:04;;;;;;;8.55;3.03;;;;;;;20.62;53.93;100692.28;6046264;28;20488;-66
2023/07/22 12:18:00;;;;;;;6.18;2.88;;;;;;;20.75;54.62;100676.88;6045948;28;20461;-67
2023/07/22 12:20:57;;;;;;;4.47;2.40;;;;;;;20.95;53.48;100674.13;6049287;28;20033;-67
2023/07/22 12:23:53;;;;;;;5.75;3.05;;;;;;;21.08;53.15;100670.53;6049596;28;20084;-66
2023/07/22 12:26:49;;;;;;;5.45;2.78;;;;;;;21.16;53.30;100683.78;6061002;28;20483;-66
2023/07/22 12:29:44;;;;;;;5.17;2.60;;;;;;;21.05;53.66;100687.97;6070399;28;20029;-67
2023/07/22 12:32:39;;;;;;;7.70;2.70;;;;;;;20.76;54.46;100681.22;6048433;28;20160;-66
2023/07/22 12:35:35;;;;;;;6.00;2.80;;;;;;;20.43;54.81;100672.44;6047225;28;20037;-66
2023/07/22 12:38:30;;;;;;;6.88;2.95;;;;;;;20.31;55.20;100665.19;6049944;28;20508;-66
2023/07/22 12:41:26;;;;;;;5.97;2.83;;;;;;;20.69;55.24;100668.81;6049685;28;20033;-66
2023/07/22 12:44:21;;;;;;;5.23;3.03;;;;;;;20.96;54.20;100674.91;6050108;28;20052;-66
2023/07/22 12:47:16;;;;;;;5.00;2.63;;;;;;;21.14;55.14;100669.69;6055130;28;20516;-66
2023/07/22 12:50:12;;;;;;;6.17;2.90;;;;;;;21.34;52.71;100665.81;6049503;28;20033;-66
2023/07/22 12:53:08;;;;;;;5.93;3.10;;;;;;;21.42;52.61;100677.38;6022942;28;20037;-67
2023/07/22 12:56:05;;;;;;;9.80;3.63;;;;;;;21.02;51.72;100656.03;5991843;28;20545;-66
2023/07/22 12:59:00;;;;;;;5.30;3.03;;;;;;;21.07;52.63;100653.53;6049286;28;20373;-67
2023/07/22 13:01:57;;;;;;;5.10;3.23;;;;;;;21.31;51.68;100647.38;6050491;28;20026;-66
2023/07/22 13:04:53;;;;;;;6.07;3.08;;;;;;;21.84;51.43;100650.50;6063176;28;20030;-66
2023/07/22 13:07:49;;;;;;;6.53;2.90;;;;;;;22.24;49.36;100639.34;6058474;28;20025;-67
2023/07/22 13:10:47;;;;;;;6.53;3.40;;;;;;;22.26;49.43;100646.19;6054009;28;20430;-66
2023/07/22 13:13:42;;;;;;;6.35;3.20;;;;;;;22.13;49.63;100622.00;6054191;28;20034;-66
2023/07/22 13:16:37;;;;;;;7.53;3.53;;;;;;;22.12;49.85;100625.78;6061841;28;20061;-67
2023/07/22 13:19:32;;;;;;;7.77;3.17;;;;;;;22.46;49.10;100632.44;6053984;28;20038;-66
2023/07/22 13:22:28;;;;;;;8.57;3.67;;;;;;;22.07;48.54;100628.28;6054032;28;20389;-67
2023/07/22 13:25:23;;;;;;;7.40;2.80;;;;;;;22.19;49.03;100642.72;6062678;28;20542;-66
2023/07/22 13:28:18;;;;;;;7.10;3.43;;;;;;;21.81;49.65;100631.22;6054022;28;20025;-67
2023/07/22 13:31:14;;;;;;;8.07;3.27;;;;;;;21.72;50.35;100633.34;6053874;28;20268;-67